createdAt,value
2022-12-19T00:03:37.535Z,102028.86
2022-12-19T00:08:20.874Z,102009.66
2022-12-19T00:13:03.851Z,102015.66
2022-12-19T00:17:46.815Z,102012.36
2022-12-19T00:22:29.789Z,102009.16
2022-12-19T00:27:12.797Z,102008.8
2022-12-19T00:31:55.864Z,101996.8
2022-12-19T00:36:38.895Z,102006.42
2022-12-19T00:41:21.868Z,102004.66
2022-12-19T00:46:04.979Z,102003.72
2022-12-19T00:50:48.081Z,101997.77
2022-12-19T00:55:31.692Z,102008.33
2022-12-19T01:00:14.602Z,101985.52
2022-12-19T01:04:57.535Z,101985.02
2022-12-19T01:09:40.466Z,101978.31
2022-12-19T01:14:24.396Z,101982.36
2022-12-19T01:19:08.316Z,101971.53
2022-12-19T01:23:51.285Z,101955.16
2022-12-19T01:28:34.220Z,101950.44
2022-12-19T01:33:17.153Z,101936.78
2022-12-19T01:38:11.835Z,101927.7
2022-12-19T01:42:54.793Z,101928.41
2022-12-19T01:47:37.731Z,101904.24
2022-12-19T01:52:24.847Z,101899.24
2022-12-19T01:57:07.817Z,101888.7
2022-12-19T02:01:53.218Z,101877.05
2022-12-19T02:06:36.438Z,101878.72
2022-12-19T02:11:19.464Z,101876
2022-12-19T02:16:02.464Z,101865.2
2022-12-19T02:20:46.585Z,101856.73
2022-12-19T02:25:29.547Z,101852.42
2022-12-19T02:30:12.602Z,101835.11
2022-12-19T02:34:55.539Z,101832.27
2022-12-19T02:39:38.520Z,101836.92
2022-12-19T02:44:21.478Z,101832.47
2022-12-19T02:49:04.418Z,101828.3
2022-12-19T02:53:47.390Z,101809.48
2022-12-19T02:58:30.381Z,101807.83
2022-12-19T03:03:13.684Z,101805.52
2022-12-19T03:07:56.773Z,101806.55
2022-12-19T03:12:39.728Z,101806.03
2022-12-19T03:17:22.709Z,101791.47
2022-12-19T03:22:05.725Z,101767.84
2022-12-19T03:26:48.697Z,101765.86
2022-12-19T03:31:31.683Z,101776.22
2022-12-19T03:36:14.661Z,101773.02
2022-12-19T03:40:57.601Z,101775.3
2022-12-19T03:45:40.756Z,101769.61
2022-12-19T03:50:23.946Z,101746.59
2022-12-19T03:55:08.040Z,101744.52
2022-12-19T03:59:50.984Z,101744.52
2022-12-19T04:04:33.921Z,101734.37
2022-12-19T04:09:23.329Z,101735.22
2022-12-19T04:14:07.525Z,101736.77
2022-12-19T04:18:50.556Z,101726.07
2022-12-19T04:23:33.582Z,101732.81
2022-12-19T04:28:16.570Z,101727.06
2022-12-19T04:33:00.781Z,101721.05
2022-12-19T04:37:44.094Z,101718.36
2022-12-19T04:42:27.056Z,101715.78
2022-12-19T04:47:10.090Z,101703.98
2022-12-19T04:51:53.051Z,101713.27
2022-12-19T04:56:37.469Z,101694.34
2022-12-19T05:01:20.682Z,101684.93
2022-12-19T05:06:03.896Z,101683.92
2022-12-19T05:10:47.311Z,101685.12
2022-12-19T05:15:30.299Z,101692.44
2022-12-19T05:20:13.309Z,101702.81
2022-12-19T05:24:56.270Z,101695.94
2022-12-19T05:29:39.295Z,101695.6
2022-12-19T05:34:22.233Z,101672.1
2022-12-19T05:39:05.201Z,101675.91
2022-12-19T05:43:48.151Z,101680.84
2022-12-19T05:48:31.154Z,101657.36
2022-12-19T05:53:14.259Z,101658.63
2022-12-19T05:57:57.724Z,101658.02
2022-12-19T06:02:40.943Z,101646.73
2022-12-19T06:07:24.372Z,101640.52
2022-12-19T06:12:07.397Z,101628.22
2022-12-19T06:16:50.730Z,101624.5
2022-12-19T06:21:33.769Z,101643.77
2022-12-19T06:26:20.894Z,101650.36
2022-12-19T06:31:03.949Z,101646.88
2022-12-19T06:35:46.989Z,101653.28
2022-12-19T06:40:30.036Z,101669.86
2022-12-19T06:45:13.040Z,101662.58
2022-12-19T06:49:56.095Z,101656.8
2022-12-19T06:54:39.122Z,101635.69
2022-12-19T06:59:22.112Z,101651.55
2022-12-19T07:04:05.119Z,101650.18
2022-12-19T07:08:48.162Z,101630.91
2022-12-19T07:13:31.318Z,101630.34
2022-12-19T07:18:14.310Z,101638.97
2022-12-19T07:22:57.347Z,101637.08
2022-12-19T07:27:40.359Z,101623.16
2022-12-19T07:32:23.332Z,101615.95
2022-12-19T07:37:07.478Z,101614.94
2022-12-19T07:41:50.501Z,101618.45
2022-12-19T07:46:33.834Z,101614.06
2022-12-19T07:51:17.383Z,101615.48
2022-12-19T07:56:00.358Z,101601.16
2022-12-19T08:00:43.688Z,101613.05
2022-12-19T08:05:26.933Z,101609.16
2022-12-19T08:10:09.956Z,101591.42
2022-12-19T08:14:59.459Z,101591.14
2022-12-19T08:19:43.404Z,101593.75
2022-12-19T08:24:26.381Z,101592.28
2022-12-19T08:29:12.072Z,101587.3
2022-12-19T08:33:55.145Z,101581.3
2022-12-19T08:38:38.451Z,101580.58
2022-12-19T08:43:24.429Z,101561.7
2022-12-19T08:48:07.426Z,101561.14
2022-12-19T08:52:51.833Z,101564.06
2022-12-19T08:57:34.842Z,101566.58
2022-12-19T09:02:18.220Z,101550.84
2022-12-19T09:07:01.668Z,101556.51
2022-12-19T09:11:49.375Z,101552.95
2022-12-19T09:16:32.506Z,101546.53
2022-12-19T09:21:15.727Z,101550.3
2022-12-19T09:25:58.881Z,101533.92
2022-12-19T09:30:42.046Z,101532.83
2022-12-19T09:35:31.094Z,101542.23
2022-12-19T09:40:14.074Z,101525.52
2022-12-19T09:44:57.161Z,101527.48
2022-12-19T09:49:43.387Z,101495.64
2022-12-19T09:54:27.842Z,101498.24
2022-12-19T09:59:10.887Z,101497.45
2022-12-19T10:03:54.080Z,101499.13
2022-12-19T10:10:11.797Z,101471.42
2022-12-19T10:17:31.247Z,101473.56
2022-12-19T10:22:19.993Z,101466.45
2022-12-19T10:27:03.037Z,101442.32
2022-12-19T10:31:48.072Z,101454.3
2022-12-19T10:37:25.524Z,101450.13
2022-12-19T10:42:21.962Z,101442.09
2022-12-19T10:47:05.840Z,101426.23
2022-12-19T10:51:49.166Z,101438.61
2022-12-19T10:56:38.575Z,101443.63
2022-12-19T11:01:22.408Z,101426.24
2022-12-19T11:06:06.046Z,101415.25
2022-12-19T11:16:30.487Z,101396.2
2022-12-19T11:35:36.873Z,101348.71
2022-12-19T11:40:20.184Z,101348.98
2022-12-19T11:45:03.182Z,101343.42
2022-12-19T11:49:49.343Z,101335.34
2022-12-19T11:54:32.352Z,101328.66
2022-12-19T11:59:15.439Z,101308.98
2022-12-19T12:04:03.878Z,101307.78
2022-12-19T12:19:34.218Z,101322.16
2022-12-19T12:38:26.264Z,101300.31
2022-12-19T12:43:11.872Z,101290.11
2022-12-19T12:47:54.995Z,101286.11
2022-12-19T12:52:41.016Z,101278.5
2022-12-19T12:57:25.036Z,101256.88
2022-12-19T13:02:12.689Z,101257.25
2022-12-19T13:06:56.354Z,101255.69
2022-12-19T13:11:39.520Z,101244.95
2022-12-19T13:16:22.673Z,101262.34
2022-12-19T13:21:05.790Z,101258.84
2022-12-19T13:25:49.954Z,101249.84
2022-12-19T13:30:50.568Z,101277.25
2022-12-19T13:40:06.228Z,101252.85
2022-12-19T13:44:56.288Z,101264.79
2022-12-19T13:49:39.316Z,101251.66
2022-12-19T13:54:22.434Z,101245.03
2022-12-19T13:59:07.722Z,101234.2
2022-12-19T14:03:51.058Z,101237.03
2022-12-19T14:08:34.309Z,101243.34
2022-12-19T14:14:05.083Z,101238.57
2022-12-19T14:18:59.823Z,101240.03
2022-12-19T14:23:44.913Z,101236.39
2022-12-19T14:28:31.577Z,101240.97
2022-12-19T14:34:11.451Z,101233.52
2022-12-19T14:39:46.469Z,101233.23
2022-12-19T15:01:13.529Z,101224.48
2022-12-19T15:07:11.645Z,101214.06
2022-12-19T15:12:56.564Z,101205.31
2022-12-19T15:19:44.439Z,101208.86
2022-12-19T15:24:27.556Z,101213.4
2022-12-19T15:29:11.102Z,101204.3
2022-12-19T15:34:38.318Z,101195.55
2022-12-19T15:39:32.646Z,101198.53
2022-12-19T15:44:15.804Z,101185.5
2022-12-19T15:48:58.910Z,101175.34
2022-12-19T15:53:42.727Z,101177.69
2022-12-19T15:58:25.880Z,101174.69
2022-12-19T16:03:27.086Z,101166.73
2022-12-19T16:08:11.549Z,101148.68
2022-12-19T16:12:54.767Z,101144.6
2022-12-19T16:17:39.621Z,101137.17
2022-12-19T16:22:22.862Z,101141.83
2022-12-19T16:27:06.055Z,101127.05
2022-12-19T16:31:49.314Z,101138.14
2022-12-19T16:36:32.508Z,101134.3
2022-12-19T16:41:15.526Z,101141.38
2022-12-19T16:46:02.559Z,101131.67
2022-12-19T16:50:46.930Z,101133.48
2022-12-19T16:55:30.166Z,101129.91
2022-12-19T17:00:13.343Z,101129.3
2022-12-19T17:04:56.439Z,101126.45
2022-12-19T17:09:39.825Z,101135.46
2022-12-19T17:14:23.030Z,101123.88
2022-12-19T17:19:06.992Z,101124.36
2022-12-19T17:23:50.072Z,101117.99
2022-12-19T17:28:33.116Z,101116.44
2022-12-19T17:33:16.161Z,101111.42
2022-12-19T17:37:59.263Z,101102.47
2022-12-19T17:42:42.347Z,101105.71
2022-12-19T17:47:25.408Z,101091.57
2022-12-19T17:52:08.545Z,101093.73
2022-12-19T17:56:51.579Z,101111.5
2022-12-19T18:01:34.806Z,101116.11
2022-12-19T18:06:18.316Z,101107.77
2022-12-19T18:11:01.367Z,101104.46
2022-12-19T18:15:44.503Z,101095.59
2022-12-19T18:20:33.053Z,101090.61
2022-12-19T18:25:16.200Z,101089.98
2022-12-19T18:29:59.291Z,101083.94
2022-12-19T18:34:42.386Z,101075.08
2022-12-19T18:39:26.548Z,101090.7
2022-12-19T18:44:09.669Z,101081.86
2022-12-19T18:48:53.021Z,101083.49
2022-12-19T18:53:40.130Z,101079.22
2022-12-19T18:58:23.181Z,101066.36
2022-12-19T19:03:06.960Z,101065.16
2022-12-19T19:07:50.423Z,101056.05
2022-12-19T19:12:33.563Z,101046.8
2022-12-19T19:17:17.881Z,101039.06
2022-12-19T19:22:01.196Z,101034.67
2022-12-19T19:26:44.291Z,101051.73
2022-12-19T19:31:27.857Z,101062.38
2022-12-19T19:36:32.256Z,101062.67
2022-12-19T19:41:15.284Z,101051.86
2022-12-19T19:45:58.446Z,101046.94
2022-12-19T19:50:42.236Z,101049.34
2022-12-19T19:55:27.261Z,101043.45
2022-12-19T20:00:10.373Z,101043.53
2022-12-19T20:04:53.481Z,101044.77
2022-12-19T20:09:36.741Z,101043.84
2022-12-19T20:14:19.876Z,101036.56
2022-12-19T20:19:04.332Z,101027.69
2022-12-19T20:23:47.502Z,101018.7
2022-12-19T20:28:30.546Z,101011.77
2022-12-19T20:33:13.741Z,101023.05
2022-12-19T20:37:56.761Z,101017.16
2022-12-19T20:42:39.811Z,101020.28
2022-12-19T20:47:23.228Z,101017.75
2022-12-19T20:52:06.255Z,101024.72
2022-12-19T20:56:49.324Z,101027.23
2022-12-19T21:01:32.662Z,101025.42
2022-12-19T21:06:18.491Z,101016.27
2022-12-19T21:11:01.579Z,101019.83
2022-12-19T21:15:44.763Z,101010.63
2022-12-19T21:20:35.129Z,101008.52
2022-12-19T21:25:18.485Z,101001.5
2022-12-19T21:30:01.491Z,100988.17
2022-12-19T21:34:44.549Z,100994.97
2022-12-19T21:39:27.505Z,101000.21
2022-12-19T21:44:10.543Z,101002.94
2022-12-19T21:48:53.648Z,101012.86
2022-12-19T21:53:36.660Z,101009.66
2022-12-19T21:58:19.695Z,101016.17
2022-12-19T22:03:16.807Z,101008.73
2022-12-19T22:08:00.314Z,100988.52
2022-12-19T22:12:44.067Z,100989.59
2022-12-19T22:17:27.101Z,100981.98
2022-12-19T22:22:10.160Z,100985.76
2022-12-19T22:26:53.218Z,100981.48
2022-12-19T22:31:36.384Z,100974.61
2022-12-19T22:36:29.095Z,100971.69
2022-12-19T22:41:12.149Z,100984.44
2022-12-19T22:45:55.531Z,100981.76
2022-12-19T22:50:38.614Z,100964.39
2022-12-19T22:55:21.619Z,100967.08
2022-12-19T23:00:04.570Z,100970.57
2022-12-19T23:04:47.545Z,100965.27
2022-12-19T23:09:30.511Z,100955.72
2022-12-19T23:14:13.965Z,100943.36
2022-12-19T23:18:56.998Z,100930.65
2022-12-19T23:23:40.040Z,100944.69
2022-12-19T23:28:24.961Z,100940.31
2022-12-19T23:33:07.938Z,100936.76
2022-12-19T23:37:50.923Z,100930.68
2022-12-19T23:42:34.287Z,100931.34
2022-12-19T23:47:17.535Z,100917.12
2022-12-19T23:52:00.605Z,100912.56
2022-12-19T23:56:43.664Z,100904.28
